Time;durP1;ratioP1;P1;durP2;ratioP2;P2;SDS_P1;SDS_P2;PMS_P1;PMS_P2;Temp;Humidity;BMP_temperature;BMP_pressure;BME280_temperature;BME280_humidity;BME280_pressure;Samples;Min_cycle;Max_cycle;Signal;HPM_P1;HPM_P2
2022/04/28 00:00:40;;;;;;;;;;;8.50;96.00;;;;;;5056943;28;20276;-88
2022/04/28 00:03:10;;;;;;;;;;;9.40;96.00;;;;;;5040630;28;20406;-88
2022/04/28 00:05:38;;;;;;;;;;;8.50;95.90;;;;;;5041438;28;20300;-86
2022/04/28 00:08:06;;;;;;;;;;;8.50;95.70;;;;;;5042683;28;19929;-88
2022/04/28 00:10:34;;;;;;;;;;;8.40;96.00;;;;;;5040524;28;19929;-88
2022/04/28 00:13:02;;;;;;;;;;;8.40;96.00;;;;;;5040778;28;19926;-88
2022/04/28 00:15:29;;;;;;;;;;;8.30;96.30;;;;;;5044636;28;19929;-88
2022/04/28 00:17:57;;;;;;;;;;;8.20;96.40;;;;;;5061488;28;19924;-88
2022/04/28 00:20:24;;;;;;;;;;;8.50;96.60;;;;;;5060429;28;20250;-86
2022/04/28 00:22:52;;;;;;;;;;;8.20;96.80;;;;;;5060490;28;19948;-87
2022/04/28 00:25:21;;;;;;;;;;;8.10;96.70;;;;;;5059617;28;19932;-86
2022/04/28 00:27:49;;;;;;;;;;;8.10;96.80;;;;;;5062080;28;20094;-89
2022/04/28 00:30:16;;;;;;;;;;;8.00;96.80;;;;;;5012968;28;19932;-87
2022/04/28 00:32:44;;;;;;;;;;;8.00;97.10;;;;;;5047796;28;19936;-86
2022/04/28 00:35:11;;;;;;;;;;;7.90;96.80;;;;;;5057414;28;20398;-88
2022/04/28 00:37:39;;;;;;;;;;;7.90;97.10;;;;;;5046884;28;19924;-90
2022/04/28 00:40:07;;;;;;;;;;;7.80;97.30;;;;;;5062200;28;19932;-88
2022/04/28 00:42:34;;;;;;;;;;;7.70;97.40;;;;;;5070228;28;19908;-90
2022/04/28 00:45:02;;;;;;;;;;;7.70;97.40;;;;;;5072925;28;19935;-88
2022/04/28 00:53:02;;;;;;;;;;;7.60;97.90;;;;;;5076634;28;19932;-88
2022/04/28 00:55:31;;;;;;;;;;;7.70;98.10;;;;;;5075435;28;19928;-88
2022/04/28 00:57:59;;;;;;;;;;;7.60;98.00;;;;;;5075449;28;20413;-88
2022/04/28 01:00:27;;;;;;;;;;;7.60;98.10;;;;;;5059207;28;19931;-86
2022/04/28 01:02:54;;;;;;;;;;;7.50;98.20;;;;;;5070874;28;19925;-89
2022/04/28 01:05:22;;;;;;;;;;;7.50;99.20;;;;;;5075114;28;19924;-88
2022/04/28 01:07:50;;;;;;;;;;;7.50;98.90;;;;;;5074250;28;19929;-88
2022/04/28 01:10:17;;;;;;;;;;;7.50;99.20;;;;;;5056253;28;19935;-87
2022/04/28 01:12:46;;;;;;;;;;;7.60;99.00;;;;;;5055236;28;19928;-88
2022/04/28 01:15:14;;;;;;;;;;;7.60;99.60;;;;;;5071576;28;20296;-88
2022/04/28 01:17:42;;;;;;;;;;;7.70;99.60;;;;;;5072377;28;19935;-88
2022/04/28 01:20:09;;;;;;;;;;;7.80;99.10;;;;;;5070128;28;19928;-90
2022/04/28 01:22:38;;;;;;;;;;;7.90;99.50;;;;;;5056109;28;19924;-88
2022/04/28 01:25:12;;;;;;;;;;;7.90;99.40;;;;;;5066417;28;19928;-87
2022/04/28 01:27:41;;;;;;;;;;;8.00;99.20;;;;;;5052510;28;19928;-88
2022/04/28 01:30:14;;;;;;;;;;;8.00;99.60;;;;;;5063960;28;19924;-88
2022/04/28 01:33:02;;;;;;;;;;;7.40;99.20;;;;;;5071040;28;19943;-88
2022/04/28 01:35:30;;;;;;;;;;;8.00;99.40;;;;;;5071380;28;19932;-87
2022/04/28 01:37:57;;;;;;;;;;;8.10;99.80;;;;;;5070447;28;20217;-90
2022/04/28 01:40:25;;;;;;;;;;;8.10;99.80;;;;;;5070572;28;19924;-87
2022/04/28 01:42:53;;;;;;;;;;;8.10;99.90;;;;;;5071906;28;20383;-87
2022/04/28 01:45:21;;;;;;;;;;;8.10;99.90;;;;;;5069393;28;19928;-89
2022/04/28 01:48:09;;;;;;;;;;;8.10;99.90;;;;;;5026393;28;19925;-87
2022/04/28 01:57:02;;;;;;;;;;;8.00;99.60;;;;;;5034476;28;19944;-87
2022/04/28 01:59:58;;;;;;;;;;;8.00;99.90;;;;;;5065842;28;19928;-88
2022/04/28 02:02:44;;;;;;;;;;;8.00;99.90;;;;;;5082396;28;20509;-87
2022/04/28 02:05:12;;;;;;;;;;;7.90;99.90;;;;;;5098904;28;19924;-86
2022/04/28 02:07:41;;;;;;;;;;;7.80;99.90;;;;;;5083900;28;19928;-88
2022/04/28 02:10:10;;;;;;;;;;;7.80;99.90;;;;;;5096646;28;19920;-87
2022/04/28 02:12:38;;;;;;;;;;;7.70;99.90;;;;;;5051909;28;19924;-86
2022/04/28 02:15:08;;;;;;;;;;;7.70;99.90;;;;;;5070286;28;19925;-86
2022/04/28 02:18:05;;;;;;;;;;;7.60;99.90;;;;;;5045027;28;19932;-87
2022/04/28 02:20:32;;;;;;;;;;;7.60;99.90;;;;;;5075645;28;19952;-87
2022/04/28 02:23:00;;;;;;;;;;;7.50;99.90;;;;;;5074492;28;19947;-89
2022/04/28 02:25:30;;;;;;;;;;;7.50;99.90;;;;;;5055774;28;19925;-87
2022/04/28 02:27:58;;;;;;;;;;;7.50;99.90;;;;;;5072908;28;19924;-86
2022/04/28 02:30:26;;;;;;;;;;;7.40;99.90;;;;;;5062160;28;19939;-86
2022/04/28 02:33:08;;;;;;;;;;;7.30;99.90;;;;;;5077893;28;19924;-87
2022/04/28 02:35:54;;;;;;;;;;;7.40;99.90;;;;;;5078783;28;19924;-87
2022/04/28 02:38:22;;;;;;;;;;;7.20;99.90;;;;;;5087518;28;19928;-88
2022/04/28 02:40:53;;;;;;;;;;;7.30;99.90;;;;;;5095820;28;19924;-87
2022/04/28 02:43:22;;;;;;;;;;;7.20;99.90;;;;;;5081042;28;19924;-87
2022/04/28 02:46:02;;;;;;;;;;;7.20;99.90;;;;;;5047638;28;19940;-86
2022/04/28 02:48:44;;;;;;;;;;;7.30;99.90;;;;;;5063488;28;19924;-87
2022/04/28 02:51:12;;;;;;;;;;;7.10;99.90;;;;;;5077883;28;19924;-87
2022/04/28 02:53:43;;;;;;;;;;;7.10;99.90;;;;;;5074789;28;19925;-88
2022/04/28 02:56:10;;;;;;;;;;;7.10;99.90;;;;;;5091405;28;20164;-87
2022/04/28 02:58:38;;;;;;;;;;;7.00;99.90;;;;;;5073769;28;19935;-87
2022/04/28 03:01:07;;;;;;;;;;;7.00;99.90;;;;;;5057936;28;20434;-87
2022/04/28 03:03:36;;;;;;;;;;;7.00;99.90;;;;;;5072571;28;19928;-86
2022/04/28 03:11:41;;;;;;;;;;;7.00;99.90;;;;;;5054718;28;20682;-86
2022/04/28 03:14:12;;;;;;;;;;;6.90;99.90;;;;;;5071397;28;19998;-87
2022/04/28 03:16:40;;;;;;;;;;;6.90;99.90;;;;;;5066936;28;19931;-87
2022/04/28 03:19:08;;;;;;;;;;;6.90;99.90;;;;;;5091656;28;19931;-87
2022/04/28 03:21:37;;;;;;;;;;;6.90;99.90;;;;;;5093263;28;20295;-87
2022/04/28 03:24:07;;;;;;;;;;;6.80;99.90;;;;;;5057457;28;19928;-88
2022/04/28 03:26:37;;;;;;;;;;;6.80;99.90;;;;;;5091807;28;19931;-87
2022/04/28 03:29:12;;;;;;;;;;;6.70;99.90;;;;;;5043094;28;20287;-87
2022/04/28 03:31:41;;;;;;;;;;;6.80;99.90;;;;;;5072615;28;19936;-87
2022/04/28 03:34:25;;;;;;;;;;;6.80;99.90;;;;;;5069334;28;19931;-86
2022/04/28 03:36:52;;;;;;;;;;;6.80;99.90;;;;;;5077805;28;19928;-87
2022/04/28 03:39:31;;;;;;;;;;;6.80;99.90;;;;;;5074286;28;19932;-88
2022/04/28 03:41:59;;;;;;;;;;;6.70;99.90;;;;;;5079046;28;20303;-86
2022/04/28 03:44:27;;;;;;;;;;;5.60;99.90;;;;;;5064057;28;19925;-87
2022/04/28 03:46:54;;;;;;;;;;;6.60;99.90;;;;;;5056241;28;19935;-87
2022/04/28 03:49:22;;;;;;;;;;;6.70;99.90;;;;;;5079463;28;19924;-87
2022/04/28 03:51:50;;;;;;;;;;;6.70;99.90;;;;;;5062041;28;20234;-87
2022/04/28 03:54:18;;;;;;;;;;;6.70;99.90;;;;;;5061511;28;19939;-87
2022/04/28 03:56:47;;;;;;;;;;;6.70;99.90;;;;;;5061079;28;20002;-87
2022/04/28 03:59:14;;;;;;;;;;;6.60;99.90;;;;;;5077127;28;20390;-87
2022/04/28 04:02:00;;;;;;;;;;;6.60;99.90;;;;;;5081056;28;19934;-88
2022/04/28 04:04:28;;;;;;;;;;;6.60;99.90;;;;;;5095553;28;20010;-89
2022/04/28 04:07:16;;;;;;;;;;;6.60;99.90;;;;;;5095795;28;19924;-87
2022/04/28 04:09:53;;;;;;;;;;;5.40;99.90;;;;;;5097373;28;19931;-89
2022/04/28 04:12:29;;;;;;;;;;;6.60;99.90;;;;;;5047413;28;19924;-88
2022/04/28 04:15:11;;;;;;;;;;;6.50;99.90;;;;;;5065279;28;20409;-86
2022/04/28 04:17:51;;;;;;;;;;;6.60;99.90;;;;;;5083265;28;19928;-90
2022/04/28 04:20:21;;;;;;;;;;;6.50;99.90;;;;;;5079014;28;19932;-90
2022/04/28 04:22:48;;;;;;;;;;;6.50;99.90;;;;;;5062124;28;19924;-89
2022/04/28 04:25:16;;;;;;;;;;;6.40;99.90;;;;;;5077050;28;19939;-90
2022/04/28 04:27:47;;;;;;;;;;;6.40;99.90;;;;;;5061184;28;19931;-88
2022/04/28 04:33:29;;;;;;;;;;;6.40;99.90;;;;;;5095153;28;19935;-89
2022/04/28 04:35:56;;;;;;;;;;;6.30;99.90;;;;;;5096774;28;19928;-89
2022/04/28 04:38:24;;;;;;;;;;;6.30;99.90;;;;;;5086368;28;19925;-89
2022/04/28 04:40:52;;;;;;;;;;;6.30;99.90;;;;;;5080688;28;20259;-86
2022/04/28 04:43:20;;;;;;;;;;;6.30;99.90;;;;;;5100758;28;19935;-88
2022/04/28 04:45:47;;;;;;;;;;;6.30;99.90;;;;;;5082744;28;19924;-89
2022/04/28 04:48:18;;;;;;;;;;;6.20;99.90;;;;;;5080512;28;19928;-88
2022/04/28 04:50:52;;;;;;;;;;;6.20;99.90;;;;;;5065240;28;20358;-89
2022/04/28 04:53:29;;;;;;;;;;;6.20;99.90;;;;;;5081909;28;20299;-89
2022/04/28 04:55:59;;;;;;;;;;;6.20;99.90;;;;;;5080140;28;19924;-90
2022/04/28 04:58:26;;;;;;;;;;;6.20;99.90;;;;;;5061635;28;19928;-90
2022/04/28 05:00:56;;;;;;;;;;;6.20;99.90;;;;;;5063212;28;19928;-90
2022/04/28 05:03:23;;;;;;;;;;;5.70;99.90;;;;;;5100234;28;19943;-90
2022/04/28 05:06:10;;;;;;;;;;;6.30;99.90;;;;;;5086389;28;19931;-89
2022/04/28 05:08:42;;;;;;;;;;;6.30;99.90;;;;;;5081483;28;19920;-89
2022/04/28 05:11:12;;;;;;;;;;;6.50;99.90;;;;;;5060724;28;19924;-91
2022/04/28 05:13:54;;;;;;;;;;;6.40;99.90;;;;;;5081901;28;19936;-90
2022/04/28 05:16:22;;;;;;;;;;;6.40;99.90;;;;;;5082193;28;19935;-88
2022/04/28 05:19:02;;;;;;;;;;;6.50;99.90;;;;;;5081443;28;19931;-88
2022/04/28 05:21:58;;;;;;;;;;;6.60;99.90;;;;;;5052522;28;20058;-88
2022/04/28 05:24:35;;;;;;;;;;;8.40;99.90;;;;;;5080353;28;19924;-89
2022/04/28 05:27:22;;;;;;;;;;;6.70;99.90;;;;;;5089544;28;19932;-89
2022/04/28 05:29:50;;;;;;;;;;;6.80;99.90;;;;;;5043369;28;19932;-89
2022/04/28 05:32:36;;;;;;;;;;;6.90;99.90;;;;;;5082013;28;19953;-87
2022/04/28 05:35:13;;;;;;;;;;;6.90;99.90;;;;;;5083876;28;19947;-87
2022/04/28 05:37:42;;;;;;;;;;;7.00;99.90;;;;;;5062497;28;20121;-88
2022/04/28 05:40:13;;;;;;;;;;;7.00;99.90;;;;;;5096632;28;19924;-89
2022/04/28 05:45:42;;;;;;;;;;;7.10;99.90;;;;;;5075817;28;19928;-88
2022/04/28 05:48:14;;;;;;;;;;;7.20;99.90;;;;;;5058475;28;19925;-88
2022/04/28 05:50:44;;;;;;;;;;;7.30;99.90;;;;;;5059788;28;19929;-89
2022/04/28 05:53:17;;;;;;;;;;;7.30;99.90;;;;;;5059827;28;19929;-86
2022/04/28 05:55:50;;;;;;;;;;;7.40;99.90;;;;;;5047983;28;19924;-87
2022/04/28 05:58:20;;;;;;;;;;;7.40;99.90;;;;;;5064232;28;19932;-88
2022/04/28 06:01:01;;;;;;;;;;;7.50;99.90;;;;;;5064252;28;19943;-88
2022/04/28 06:03:34;;;;;;;;;;;7.60;99.90;;;;;;5064235;28;19939;-88
2022/04/28 06:06:15;;;;;;;;;;;7.60;99.90;;;;;;5079872;28;19928;-85
2022/04/28 06:08:45;;;;;;;;;;;7.70;99.90;;;;;;5086198;28;19928;-86
2022/04/28 06:11:15;;;;;;;;;;;7.80;99.90;;;;;;5082998;28;19924;-88
2022/04/28 06:13:43;;;;;;;;;;;7.90;99.90;;;;;;5081229;28;19932;-87
2022/04/28 06:16:30;;;;;;;;;;;7.90;99.90;;;;;;5102004;28;19931;-90
2022/04/28 06:19:16;;;;;;;;;;;8.00;99.90;;;;;;5080065;28;19925;-88
2022/04/28 06:22:02;;;;;;;;;;;8.10;99.90;;;;;;5064941;28;19920;-86
2022/04/28 06:24:35;;;;;;;;;;;8.20;99.90;;;;;;5061353;28;19931;-87
2022/04/28 06:27:04;;;;;;;;;;;8.30;99.90;;;;;;5075755;28;19929;-88
2022/04/28 06:29:32;;;;;;;;;;;8.40;99.90;;;;;;5075593;28;19928;-86
2022/04/28 06:32:08;;;;;;;;;;;8.40;99.90;;;;;;5082292;28;19955;-86
2022/04/28 06:34:46;;;;;;;;;;;8.30;99.90;;;;;;5079958;28;19924;-87
2022/04/28 06:37:16;;;;;;;;;;;8.60;99.90;;;;;;5059939;28;19931;-86
2022/04/28 06:39:54;;;;;;;;;;;8.80;99.90;;;;;;5051179;28;19935;-90
2022/04/28 06:42:22;;;;;;;;;;;8.80;99.90;;;;;;5091868;28;19928;-89
2022/04/28 06:45:12;;;;;;;;;;;9.00;99.90;;;;;;5110833;28;19946;-89
2022/04/28 06:48:09;;;;;;;;;;;9.10;99.70;;;;;;5069273;28;19928;-91
2022/04/28 06:50:40;;;;;;;;;;;9.30;99.90;;;;;;5064348;28;19932;-87
2022/04/28 06:53:26;;;;;;;;;;;9.30;98.90;;;;;;5069718;28;19935;-87
2022/04/28 06:56:08;;;;;;;;;;;9.40;98.80;;;;;;5065888;28;19924;-88
2022/04/28 06:59:13;;;;;;;;;;;9.40;98.90;;;;;;5044940;28;19925;-86
2022/04/28 07:01:43;;;;;;;;;;;9.50;98.50;;;;;;5063457;28;19933;-86
2022/04/28 07:04:14;;;;;;;;;;;9.80;98.20;;;;;;5074703;28;19928;-89
2022/04/28 07:06:43;;;;;;;;;;;9.60;98.20;;;;;;5077065;28;19963;-87
2022/04/28 07:09:19;;;;;;;;;;;9.60;98.50;;;;;;5073089;28;19924;-87
2022/04/28 07:11:48;;;;;;;;;;;9.80;98.30;;;;;;5073860;28;19959;-88
2022/04/28 07:14:43;;;;;;;;;;;9.90;98.10;;;;;;5056048;28;19924;-88
2022/04/28 07:17:33;;;;;;;;;;;9.90;97.60;;;;;;5078287;28;19928;-88
2022/04/28 07:20:02;;;;;;;;;;;10.00;97.60;;;;;;5076594;28;19962;-87
2022/04/28 07:22:32;;;;;;;;;;;10.00;97.20;;;;;;5073544;28;20706;-89
2022/04/28 07:25:00;;;;;;;;;;;10.10;97.20;;;;;;5039131;28;19929;-88
2022/04/28 07:27:28;;;;;;;;;;;10.10;97.30;;;;;;5060499;28;19920;-87
2022/04/28 07:30:04;;;;;;;;;;;10.20;97.00;;;;;;5041904;28;19925;-89
2022/04/28 07:32:41;;;;;;;;;;;10.30;96.80;;;;;;5078763;28;19928;-89
2022/04/28 07:35:15;;;;;;;;;;;10.30;96.30;;;;;;5070346;28;19924;-88
2022/04/28 07:38:02;;;;;;;;;;;10.40;96.80;;;;;;5060823;28;19935;-87
2022/04/28 07:41:06;;;;;;;;;;;10.50;96.50;;;;;;5053171;28;19929;-89
2022/04/28 07:43:33;;;;;;;;;;;9.30;96.00;;;;;;5075902;28;19944;-89
2022/04/28 07:46:01;;;;;;;;;;;10.60;96.10;;;;;;5049501;28;19996;-88
2022/04/28 07:48:31;;;;;;;;;;;10.60;96.10;;;;;;5022065;28;19932;-87
2022/04/28 07:51:01;;;;;;;;;;;10.70;95.80;;;;;;5037894;28;19925;-89
2022/04/28 07:53:33;;;;;;;;;;;10.70;95.80;;;;;;5040579;28;19925;-87
2022/04/28 07:56:15;;;;;;;;;;;10.70;95.90;;;;;;5053945;28;19928;-89
2022/04/28 07:58:49;;;;;;;;;;;10.80;95.40;;;;;;5051094;28;19928;-89
2022/04/28 08:01:45;;;;;;;;;;;11.00;95.80;;;;;;5031590;28;19937;-89
2022/04/28 08:04:15;;;;;;;;;;;12.00;95.20;;;;;;5029597;28;19932;-90
2022/04/28 08:06:47;;;;;;;;;;;11.10;95.10;;;;;;5055661;28;19929;-89
2022/04/28 08:09:15;;;;;;;;;;;11.30;95.70;;;;;;5046355;28;19932;-90
2022/04/28 08:11:43;;;;;;;;;;;11.30;95.00;;;;;;5018229;28;19925;-88
2022/04/28 08:14:11;;;;;;;;;;;11.40;95.00;;;;;;5070128;28;19924;-87
2022/04/28 08:16:39;;;;;;;;;;;11.40;94.60;;;;;;5040710;28;19925;-90
2022/04/28 08:19:13;;;;;;;;;;;11.40;94.60;;;;;;5036706;28;20376;-89
2022/04/28 08:21:44;;;;;;;;;;;11.50;94.60;;;;;;5081659;28;19929;-88
2022/04/28 08:24:12;;;;;;;;;;;11.50;94.50;;;;;;5033529;28;19925;-88
2022/04/28 08:26:44;;;;;;;;;;;11.50;94.60;;;;;;5054850;28;20309;-89
2022/04/28 08:29:15;;;;;;;;;;;11.60;94.70;;;;;;5037351;28;19934;-89
2022/04/28 08:31:49;;;;;;;;;;;11.70;94.50;;;;;;5058176;28;20314;-88
2022/04/28 08:34:22;;;;;;;;;;;11.60;94.20;;;;;;5069985;28;19929;-87
2022/04/28 08:36:51;;;;;;;;;;;11.70;94.50;;;;;;5056845;28;19935;-88
2022/04/28 08:39:22;;;;;;;;;;;11.70;94.40;;;;;;5056360;28;20297;-88
2022/04/28 08:41:50;;;;;;;;;;;11.70;94.20;;;;;;5039091;28;19929;-89
2022/04/28 08:44:22;;;;;;;;;;;11.70;94.50;;;;;;5057414;28;19944;-89
2022/04/28 08:47:08;;;;;;;;;;;11.70;94.50;;;;;;5058635;28;19925;-89
2022/04/28 08:49:42;;;;;;;;;;;11.80;94.30;;;;;;5056986;28;19936;-88
2022/04/28 08:52:31;;;;;;;;;;;11.70;94.40;;;;;;5057847;28;19925;-89
2022/04/28 08:55:09;;;;;;;;;;;11.30;94.10;;;;;;5087587;28;20380;-89
2022/04/28 08:57:37;;;;;;;;;;;11.80;94.30;;;;;;5040686;28;20292;-89
2022/04/28 09:00:06;;;;;;;;;;;12.00;94.70;;;;;;5057570;28;19928;-89
2022/04/28 09:02:54;;;;;;;;;;;12.10;94.00;;;;;;5082763;28;19946;-89
2022/04/28 09:05:41;;;;;;;;;;;12.20;93.80;;;;;;5065554;28;19936;-89
2022/04/28 09:08:37;;;;;;;;;;;12.30;93.70;;;;;;5073970;28;19924;-88
2022/04/28 09:11:29;;;;;;;;;;;12.30;93.60;;;;;;5056545;28;19931;-88
2022/04/28 09:14:20;;;;;;;;;;;12.40;93.70;;;;;;5078214;28;20031;-88
2022/04/28 09:16:56;;;;;;;;;;;12.40;93.30;;;;;;5047567;28;19925;-89
2022/04/28 09:19:26;;;;;;;;;;;12.40;93.10;;;;;;5039334;28;19929;-89
2022/04/28 09:22:05;;;;;;;;;;;12.40;93.30;;;;;;5040502;28;19928;-87
2022/04/28 09:24:39;;;;;;;;;;;12.50;93.20;;;;;;5039611;28;19925;-88
2022/04/28 09:27:08;;;;;;;;;;;11.70;93.00;;;;;;5039183;28;19929;-88
2022/04/28 09:29:39;;;;;;;;;;;12.60;93.10;;;;;;5059379;28;20326;-88
2022/04/28 09:32:12;;;;;;;;;;;12.60;93.00;;;;;;5038180;28;20299;-88
2022/04/28 09:35:19;;;;;;;;;;;12.70;93.00;;;;;;5069747;28;19935;-89
2022/04/28 09:37:51;;;;;;;;;;;12.70;93.20;;;;;;5057914;28;20292;-89
2022/04/28 09:43:06;;;;;;;;;;;12.70;92.70;;;;;;5050104;28;20142;-89
2022/04/28 09:45:39;;;;;;;;;;;12.80;93.00;;;;;;5071277;28;19928;-88
2022/04/28 09:48:09;;;;;;;;;;;12.90;92.90;;;;;;5057516;28;19955;-89
2022/04/28 09:50:43;;;;;;;;;;;13.00;92.80;;;;;;5052923;28;19963;-88
2022/04/28 09:53:44;;;;;;;;;;;13.00;92.70;;;;;;5039189;28;20671;-89
2022/04/28 09:56:34;;;;;;;;;;;13.10;92.80;;;;;;5055435;28;19925;-88
2022/04/28 09:59:17;;;;;;;;;;;13.10;92.90;;;;;;5051462;28;20387;-88
2022/04/28 10:01:47;;;;;;;;;;;13.20;92.80;;;;;;5037787;28;19925;-89
2022/04/28 10:04:16;;;;;;;;;;;13.30;93.00;;;;;;5053213;28;19935;-90
2022/04/28 10:07:14;;;;;;;;;;;13.40;93.00;;;;;;5045063;28;19940;-88
2022/04/28 10:09:48;;;;;;;;;;;13.40;92.60;;;;;;5051720;28;19943;-89
2022/04/28 10:12:19;;;;;;;;;;;13.50;92.40;;;;;;5032207;28;19925;-89
2022/04/28 10:15:26;;;;;;;;;;;13.30;92.00;;;;;;5050092;28;19939;-87
2022/04/28 10:18:09;;;;;;;;;;;13.30;92.40;;;;;;5053994;28;19929;-88
2022/04/28 10:20:39;;;;;;;;;;;13.40;92.30;;;;;;5064667;28;19928;-88
2022/04/28 10:32:24;;;;;;;;;;;13.60;91.70;;;;;;5049665;28;19932;-87
2022/04/28 10:35:03;;;;;;;;;;;13.70;91.80;;;;;;5051729;28;19933;-88
2022/04/28 10:37:36;;;;;;;;;;;13.80;91.90;;;;;;5051356;28;19924;-88
2022/04/28 10:40:11;;;;;;;;;;;13.90;91.90;;;;;;5055373;28;19936;-88
2022/04/28 10:42:39;;;;;;;;;;;14.80;92.00;;;;;;5051608;28;19939;-88
2022/04/28 10:45:35;;;;;;;;;;;14.20;91.30;;;;;;5049952;28;20012;-87
2022/04/28 10:51:18;;;;;;;;;;;14.50;91.40;;;;;;5049635;28;19925;-88
2022/04/28 10:53:58;;;;;;;;;;;14.60;91.40;;;;;;5051184;28;19932;-89
2022/04/28 10:56:28;;;;;;;;;;;14.60;91.70;;;;;;5055942;28;20221;-90
2022/04/28 10:58:59;;;;;;;;;;;14.60;91.20;;;;;;5051919;28;19959;-89
2022/04/28 11:01:33;;;;;;;;;;;14.70;91.20;;;;;;5039633;28;19925;-89
2022/04/28 11:04:02;;;;;;;;;;;14.70;91.40;;;;;;5052977;28;19932;-87
2022/04/28 11:06:37;;;;;;;;;;;14.80;91.10;;;;;;5053215;28;19936;-89
2022/04/28 11:09:05;;;;;;;;;;;14.80;91.00;;;;;;5033634;28;20492;-88
2022/04/28 11:11:43;;;;;;;;;;;14.90;90.90;;;;;;5052327;28;19928;-89
2022/04/28 11:14:11;;;;;;;;;;;15.00;90.90;;;;;;5055500;28;19924;-88
2022/04/28 11:16:40;;;;;;;;;;;15.10;91.20;;;;;;5049910;28;19932;-88
2022/04/28 11:19:09;;;;;;;;;;;15.20;90.70;;;;;;5052560;28;19924;-89
2022/04/28 11:21:43;;;;;;;;;;;15.20;90.60;;;;;;5036518;28;19929;-88
2022/04/28 11:24:11;;;;;;;;;;;15.10;90.50;;;;;;5086939;28;19935;-88
2022/04/28 11:26:49;;;;;;;;;;;15.20;90.70;;;;;;5070935;28;19928;-87
2022/04/28 11:29:46;;;;;;;;;;;15.20;90.80;;;;;;5056417;28;20395;-89
2022/04/28 11:32:16;;;;;;;;;;;15.30;90.80;;;;;;5057774;28;19932;-88
2022/04/28 11:34:44;;;;;;;;;;;15.30;90.70;;;;;;5061550;28;19939;-88
2022/04/28 11:37:14;;;;;;;;;;;15.40;90.80;;;;;;5068869;28;19929;-86
2022/04/28 11:39:45;;;;;;;;;;;15.40;90.60;;;;;;5039044;28;20419;-88
2022/04/28 11:42:16;;;;;;;;;;;15.40;90.40;;;;;;5041583;28;19933;-88
2022/04/28 11:44:51;;;;;;;;;;;15.50;90.60;;;;;;5039640;28;19929;-88
2022/04/28 11:47:24;;;;;;;;;;;15.60;90.80;;;;;;5035860;28;19925;-89
2022/04/28 11:49:58;;;;;;;;;;;15.70;90.30;;;;;;5044499;28;19928;-88
2022/04/28 11:52:28;;;;;;;;;;;15.70;90.20;;;;;;5074152;28;19932;-88
2022/04/28 11:55:01;;;;;;;;;;;15.70;90.60;;;;;;5066481;28;19929;-92
2022/04/28 11:57:29;;;;;;;;;;;15.60;90.30;;;;;;5057819;28;19924;-85
2022/04/28 11:59:58;;;;;;;;;;;15.60;90.50;;;;;;5055519;28;19929;-84
2022/04/28 12:02:30;;;;;;;;;;;15.50;90.60;;;;;;5077435;28;19924;-84
2022/04/28 12:05:00;;;;;;;;;;;15.50;90.20;;;;;;5082735;28;20295;-87
2022/04/28 12:07:31;;;;;;;;;;;15.60;90.50;;;;;;5064036;28;19935;-86
2022/04/28 12:15:33;;;;;;;;;;;15.80;90.40;;;;;;5058148;28;20388;-85
2022/04/28 12:21:01;;;;;;;;;;;15.90;90.40;;;;;;5079097;28;19935;-85
2022/04/28 12:23:31;;;;;;;;;;;15.80;90.20;;;;;;5077098;28;19931;-85
2022/04/28 12:26:06;;;;;;;;;;;15.80;90.20;;;;;;5053761;28;19925;-86
2022/04/28 12:28:35;;;;;;;;;;;15.80;90.50;;;;;;5070656;28;19932;-86
2022/04/28 12:31:03;;;;;;;;;;;15.90;90.50;;;;;;5031226;28;19928;-87
2022/04/28 12:33:34;;;;;;;;;;;16.00;90.20;;;;;;5079153;28;19936;-85
2022/04/28 12:36:13;;;;;;;;;;;16.00;90.40;;;;;;5076155;28;19935;-84
2022/04/28 12:38:44;;;;;;;;;;;16.10;90.00;;;;;;5038093;28;19925;-86
2022/04/28 12:41:15;;;;;;;;;;;16.40;89.70;;;;;;5073660;28;20583;-85
2022/04/28 12:43:48;;;;;;;;;;;16.40;89.00;;;;;;5075059;28;19938;-86
2022/04/28 12:46:21;;;;;;;;;;;16.30;89.00;;;;;;5052930;28;19931;-84
2022/04/28 12:48:54;;;;;;;;;;;16.40;90.10;;;;;;5083994;28;19936;-84
2022/04/28 12:51:28;;;;;;;;;;;16.40;89.80;;;;;;5078673;28;19929;-85
2022/04/28 12:54:13;;;;;;;;;;;16.40;89.70;;;;;;5050194;28;19952;-85
2022/04/28 12:56:43;;;;;;;;;;;16.30;89.00;;;;;;5055206;28;19935;-84
2022/04/28 12:59:13;;;;;;;;;;;16.20;89.50;;;;;;5075520;28;19936;-85
2022/04/28 13:01:42;;;;;;;;;;;16.20;88.70;;;;;;5072647;28;19925;-84
2022/04/28 13:04:12;;;;;;;;;;;16.20;89.10;;;;;;5039414;28;19925;-86
2022/04/28 13:06:40;;;;;;;;;;;16.10;90.00;;;;;;5058032;28;19928;-85
2022/04/28 13:09:07;;;;;;;;;;;16.20;89.30;;;;;;5076712;28;19935;-88
2022/04/28 13:11:38;;;;;;;;;;;16.20;89.70;;;;;;5082010;28;19925;-89
2022/04/28 13:14:06;;;;;;;;;;;16.20;89.60;;;;;;5051898;28;19928;-88
2022/04/28 13:16:34;;;;;;;;;;;16.20;88.70;;;;;;5072024;28;19925;-86
2022/04/28 13:19:02;;;;;;;;;;;16.10;88.80;;;;;;5073399;28;20691;-87
2022/04/28 13:21:31;;;;;;;;;;;16.10;88.80;;;;;;5072550;28;19978;-88
2022/04/28 13:23:59;;;;;;;;;;;16.10;89.70;;;;;;5063077;28;19924;-88
2022/04/28 13:26:28;;;;;;;;;;;16.10;89.70;;;;;;5062365;28;19932;-91
2022/04/28 13:29:11;;;;;;;;;;;;;;;;;;;;;
2022/04/28 13:31:47;;;;;;;;;;;16.10;89.90;;;;;;5080313;28;19932;-87
2022/04/28 13:34:15;;;;;;;;;;;16.50;89.10;;;;;;5086745;28;19924;-92
2022/04/28 13:36:43;;;;;;;;;;;16.20;89.40;;;;;;5068201;28;19931;-91
2022/04/28 13:39:11;;;;;;;;;;;16.30;89.20;;;;;;5095764;28;19935;-90
2022/04/28 13:41:42;;;;;;;;;;;16.30;89.30;;;;;;5060025;28;19936;-91
2022/04/28 13:44:11;;;;;;;;;;;16.40;88.10;;;;;;5043185;28;19924;-93
2022/04/28 13:46:38;;;;;;;;;;;16.50;88.70;;;;;;5040303;28;19936;-91
2022/04/28 13:49:09;;;;;;;;;;;16.60;88.40;;;;;;5039884;28;19940;-92
2022/04/28 13:51:37;;;;;;;;;;;16.70;88.70;;;;;;5056747;28;19936;-92
2022/04/28 13:54:05;;;;;;;;;;;16.80;88.00;;;;;;5075787;28;19931;-91
2022/04/28 13:56:34;;;;;;;;;;;16.80;87.10;;;;;;5059377;28;20315;-91
2022/04/28 13:59:02;;;;;;;;;;;16.60;87.50;;;;;;5042654;28;19932;-92
2022/04/28 14:01:33;;;;;;;;;;;16.50;88.20;;;;;;5045522;28;19924;-91
2022/04/28 14:04:03;;;;;;;;;;;16.40;88.40;;;;;;5063497;28;19925;-90
2022/04/28 14:06:32;;;;;;;;;;;16.20;87.60;;;;;;5061012;28;19931;-91
2022/04/28 14:09:01;;;;;;;;;;;16.30;88.10;;;;;;5062392;28;19928;-91
2022/04/28 14:11:30;;;;;;;;;;;16.30;88.20;;;;;;5046616;28;19924;-92
2022/04/28 14:13:59;;;;;;;;;;;16.20;88.20;;;;;;5028168;28;19925;-90
2022/04/28 14:16:27;;;;;;;;;;;16.10;89.00;;;;;;5026500;28;19932;-90
2022/04/28 14:18:56;;;;;;;;;;;16.00;88.70;;;;;;5039819;28;19955;-90
2022/04/28 14:21:23;;;;;;;;;;;15.90;88.70;;;;;;5040140;28;19928;-90
2022/04/28 14:23:51;;;;;;;;;;;15.80;88.60;;;;;;5028236;28;19928;-92
2022/04/28 14:26:46;;;;;;;;;;;15.80;89.10;;;;;;5040243;28;19932;-90
2022/04/28 14:29:14;;;;;;;;;;;14.80;89.00;;;;;;5061728;28;19928;-92
2022/04/28 14:31:44;;;;;;;;;;;15.50;89.90;;;;;;5048771;28;19931;-91
2022/04/28 14:34:24;;;;;;;;;;;15.40;89.60;;;;;;5027893;28;19933;-91
2022/04/28 14:36:58;;;;;;;;;;;15.40;89.80;;;;;;5047843;28;19931;-92
2022/04/28 14:39:28;;;;;;;;;;;15.40;90.00;;;;;;5055699;28;19928;-93
2022/04/28 14:41:59;;;;;;;;;;;15.50;89.60;;;;;;5072003;28;19936;-94
2022/04/28 14:44:50;;;;;;;;;;;15.60;89.90;;;;;;5058736;28;19925;-91
2022/04/28 14:47:20;;;;;;;;;;;15.80;89.90;;;;;;5056021;28;19928;-93
2022/04/28 14:52:48;;;;;;;;;;;16.00;89.30;;;;;;5073302;28;19932;-93
2022/04/28 14:55:17;;;;;;;;;;;15.90;89.10;;;;;;5074621;28;19928;-94
2022/04/28 14:57:52;;;;;;;;;;;16.00;88.60;;;;;;5060614;28;19947;-93
2022/04/28 15:00:24;;;;;;;;;;;16.20;88.90;;;;;;5038662;28;19929;-95
2022/04/28 15:02:56;;;;;;;;;;;16.50;88.20;;;;;;5070276;28;19925;-94
2022/04/28 15:05:29;;;;;;;;;;;16.60;88.00;;;;;;5047553;28;19929;-95
2022/04/28 15:08:04;;;;;;;;;;;16.80;88.10;;;;;;5041557;28;20424;-94
2022/04/28 15:10:32;;;;;;;;;;;17.20;88.60;;;;;;5037116;28;19936;-94
2022/04/28 15:13:02;;;;;;;;;;;17.50;86.30;;;;;;5071718;28;19943;-92
2022/04/28 15:15:35;;;;;;;;;;;17.60;86.50;;;;;;5058301;28;19937;-94
2022/04/28 15:18:04;;;;;;;;;;;17.80;85.70;;;;;;5039130;28;19939;-93
2022/04/28 15:20:38;;;;;;;;;;;17.90;85.00;;;;;;5044233;28;19933;-96
2022/04/28 15:23:08;;;;;;;;;;;18.20;85.60;;;;;;5055925;28;19987;-93
2022/04/28 15:25:44;;;;;;;;;;;18.40;85.30;;;;;;5055565;28;19925;-93
2022/04/28 15:28:12;;;;;;;;;;;18.40;83.70;;;;;;5023456;28;19940;-93
2022/04/28 15:30:45;;;;;;;;;;;18.30;84.10;;;;;;5040615;28;19929;-94
2022/04/28 15:33:15;;;;;;;;;;;17.90;84.30;;;;;;5032036;28;19933;-92
2022/04/28 15:35:43;;;;;;;;;;;17.60;85.10;;;;;;5080141;28;19939;-93
2022/04/28 15:38:16;;;;;;;;;;;17.20;85.80;;;;;;5084446;28;19929;-92
2022/04/28 15:40:56;;;;;;;;;;;16.90;86.10;;;;;;5079694;28;19920;-93
2022/04/28 15:43:33;;;;;;;;;;;16.50;86.50;;;;;;5067324;28;19929;-91
2022/04/28 15:46:11;;;;;;;;;;;16.30;87.30;;;;;;5049256;28;19929;-93
2022/04/28 15:48:44;;;;;;;;;;;16.10;87.60;;;;;;5053856;28;19925;-93